Terminal Aerodrome Forecast
Issued by NWS Twin Cities, MN

Home | Current Version | Previous Version | Graphics & Text | Print | Product List | Glossary On
Versions: 1 2 3 4 5 6 7 8 9 10 11 12 13 14 15 16 17 18 19 20 21 22 23 24 25 26 27 28
102
FTUS43 KMPX 281740
TAFMSP
TAF
KMSP 281740Z 2818/2924 VRB04KT P6SM VCSH SCT018 BKN040
      TEMPO 2818/2821 5SM SHRA BKN018 OVC040
     FM282100 VRB03KT P6SM VCTS BKN025CB OVC040
      TEMPO 2821/2824 5SM SHRA OVC020
     FM290000 VRB03KT P6SM VCSH BKN040 BKN060
     FM290300 02005KT P6SM VCSH SCT025 BKN070
     FM290700 31005KT P6SM SCT008 OVC025
     FM291600 28010KT P6SM SCT035 BKN060=

USA.gov is the U.S. government's official web portal to all federal, state and local government web resources and services.